AAY276 KBLI-KPSP
Flight info
| Callsign | AAY276 |
|---|---|
| Flight time | 2h 23m |
| Altitude | 37000 |
| Route | KLSHN2 KLSHN CVV PAAGE Q11 PASKE OYVEY SIZLR4 |
| Aircraft | A319/M-SDE3FGHIRWY/LB1 |
Departure
| Time | 2026-05-04 02:33 |
|---|---|
| Airport | Bellingham International Airport (KBLI) |
Arrival
| Time | 2026-05-04 04:57 |
|---|---|
| Airport | Palm Springs International Airport (KPSP) |
| Time | Latitude | Longitude | Altitude | Speed | Heading |
|---|---|---|---|---|---|
| 2026-05-04 01:55 | 48.79488 | -122.53333 | 158 ft | 0 kts | 51° |
| 2026-05-04 02:24 | 48.79488 | -122.53334 | 158 ft | 2 kts | 51° |
| 2026-05-04 02:24 | 48.79476 | -122.53357 | 158 ft | 2 kts | 51° |
| 2026-05-04 02:24 | 48.79461 | -122.53378 | 158 ft | 3 kts | 16° |
| 2026-05-04 02:24 | 48.79442 | -122.53377 | 158 ft | 3 kts | 327° |
| 2026-05-04 02:25 | 48.79430 | -122.53364 | 158 ft | 0 kts | 321° |
| 2026-05-04 02:27 | 48.79432 | -122.53366 | 158 ft | 1 kts | 321° |
| 2026-05-04 02:27 | 48.79447 | -122.53385 | 158 ft | 6 kts | 321° |
| 2026-05-04 02:27 | 48.79484 | -122.53430 | 158 ft | 8 kts | 320° |
| 2026-05-04 02:28 | 48.79530 | -122.53485 | 158 ft | 9 kts | 323° |
| 2026-05-04 02:28 | 48.79597 | -122.53510 | 158 ft | 11 kts | 1° |
| 2026-05-04 02:28 | 48.79670 | -122.53537 | 158 ft | 12 kts | 320° |
| 2026-05-04 02:28 | 48.79741 | -122.53587 | 159 ft | 12 kts | 360° |
| 2026-05-04 02:29 | 48.79822 | -122.53587 | 161 ft | 11 kts | 359° |
| 2026-05-04 02:29 | 48.79898 | -122.53587 | 163 ft | 11 kts | 360° |
| 2026-05-04 02:29 | 48.79971 | -122.53587 | 164 ft | 11 kts | 0° |
| 2026-05-04 02:29 | 48.80052 | -122.53575 | 164 ft | 13 kts | 11° |
| 2026-05-04 02:30 | 48.80133 | -122.53570 | 163 ft | 8 kts | 359° |
| 2026-05-04 02:30 | 48.80177 | -122.53613 | 163 ft | 7 kts | 291° |
| 2026-05-04 02:30 | 48.80178 | -122.53628 | 163 ft | 0 kts | 273° |
| 2026-05-04 02:31 | 48.80178 | -122.53640 | 163 ft | 4 kts | 273° |
| 2026-05-04 02:32 | 48.80179 | -122.53703 | 163 ft | 7 kts | 271° |
| 2026-05-04 02:32 | 48.80159 | -122.53758 | 162 ft | 7 kts | 200° |
| 2026-05-04 02:32 | 48.80144 | -122.53759 | 162 ft | 1 kts | 179° |
| 2026-05-04 02:32 | 48.80075 | -122.53759 | 162 ft | 37 kts | 180° |
| 2026-05-04 02:33 | 48.79534 | -122.53756 | 159 ft | 115 kts | 180° |
| 2026-05-04 02:33 | 48.78567 | -122.53756 | 402 ft | 145 kts | 180° |
| 2026-05-04 02:33 | 48.77578 | -122.53996 | 1018 ft | 145 kts | 197° |
| 2026-05-04 02:33 | 48.76590 | -122.54364 | 1610 ft | 147 kts | 194° |
| 2026-05-04 02:34 | 48.75567 | -122.54708 | 2044 ft | 157 kts | 193° |
| 2026-05-04 02:34 | 48.74446 | -122.55088 | 2370 ft | 174 kts | 193° |
| 2026-05-04 02:34 | 48.73213 | -122.55500 | 2699 ft | 193 kts | 193° |
| 2026-05-04 02:34 | 48.71826 | -122.55955 | 3027 ft | 212 kts | 193° |
| 2026-05-04 02:35 | 48.70323 | -122.56474 | 3341 ft | 232 kts | 194° |
| 2026-05-04 02:35 | 48.68655 | -122.57068 | 3620 ft | 259 kts | 194° |
| 2026-05-04 02:35 | 48.66832 | -122.57719 | 4157 ft | 276 kts | 193° |
| 2026-05-04 02:35 | 48.64970 | -122.58393 | 5139 ft | 276 kts | 193° |
| 2026-05-04 02:36 | 48.63082 | -122.59056 | 5997 ft | 281 kts | 192° |
| 2026-05-04 02:36 | 48.61166 | -122.59709 | 6880 ft | 283 kts | 192° |
| 2026-05-04 02:36 | 48.59239 | -122.60371 | 7759 ft | 286 kts | 192° |
| 2026-05-04 02:36 | 48.57290 | -122.61065 | 8594 ft | 290 kts | 192° |
| 2026-05-04 02:37 | 48.55339 | -122.61751 | 9432 ft | 294 kts | 192° |
| 2026-05-04 02:37 | 48.53331 | -122.62450 | 10220 ft | 299 kts | 192° |
| 2026-05-04 02:37 | 48.51229 | -122.63173 | 10530 ft | 321 kts | 192° |
| 2026-05-04 02:37 | 48.48970 | -122.63949 | 10784 ft | 345 kts | 192° |
| 2026-05-04 02:38 | 48.46560 | -122.64780 | 11064 ft | 364 kts | 192° |
| 2026-05-04 02:38 | 48.44065 | -122.65645 | 11668 ft | 371 kts | 192° |
| 2026-05-04 02:38 | 48.41529 | -122.66528 | 12361 ft | 376 kts | 193° |
| 2026-05-04 02:38 | 48.38964 | -122.67420 | 13062 ft | 380 kts | 193° |
| 2026-05-04 02:39 | 48.36379 | -122.68320 | 13747 ft | 385 kts | 193° |
| 2026-05-04 02:39 | 48.33752 | -122.69234 | 14357 ft | 389 kts | 193° |
| 2026-05-04 02:39 | 48.31095 | -122.70156 | 14972 ft | 393 kts | 193° |
| 2026-05-04 02:39 | 48.28418 | -122.71070 | 15587 ft | 397 kts | 191° |
| 2026-05-04 02:40 | 48.25661 | -122.71509 | 16193 ft | 401 kts | 180° |
| 2026-05-04 02:40 | 48.22870 | -122.71166 | 16806 ft | 404 kts | 169° |
| 2026-05-04 02:40 | 48.20154 | -122.70041 | 17414 ft | 407 kts | 159° |
| 2026-05-04 02:40 | 48.17495 | -122.68542 | 18026 ft | 411 kts | 159° |
| 2026-05-04 02:41 | 48.14807 | -122.67039 | 18596 ft | 414 kts | 159° |
| 2026-05-04 02:41 | 48.12134 | -122.65557 | 19116 ft | 417 kts | 159° |
| 2026-05-04 02:41 | 48.09400 | -122.64050 | 19618 ft | 421 kts | 159° |
| 2026-05-04 02:41 | 48.06642 | -122.62533 | 20094 ft | 425 kts | 159° |
| 2026-05-04 02:42 | 48.03856 | -122.60998 | 20567 ft | 429 kts | 159° |
| 2026-05-04 02:42 | 48.01049 | -122.59449 | 21026 ft | 432 kts | 158° |
| 2026-05-04 02:42 | 47.98210 | -122.57882 | 21477 ft | 436 kts | 158° |
| 2026-05-04 02:42 | 47.95355 | -122.56309 | 21956 ft | 439 kts | 158° |
| 2026-05-04 02:43 | 47.92478 | -122.54726 | 22440 ft | 442 kts | 158° |
| 2026-05-04 02:43 | 47.89586 | -122.53135 | 22897 ft | 445 kts | 158° |
| 2026-05-04 02:43 | 47.86674 | -122.51530 | 23347 ft | 448 kts | 158° |
| 2026-05-04 02:43 | 47.83736 | -122.49915 | 23734 ft | 452 kts | 158° |
| 2026-05-04 02:44 | 47.80777 | -122.48296 | 24098 ft | 454 kts | 158° |
| 2026-05-04 02:44 | 47.77799 | -122.46671 | 24498 ft | 457 kts | 158° |
| 2026-05-04 02:44 | 47.74811 | -122.45039 | 24871 ft | 459 kts | 157° |
| 2026-05-04 02:44 | 47.71805 | -122.43398 | 25265 ft | 461 kts | 157° |
| 2026-05-04 02:45 | 47.68844 | -122.41785 | 25618 ft | 463 kts | 157° |
| 2026-05-04 02:45 | 47.65815 | -122.40134 | 25982 ft | 465 kts | 157° |
| 2026-05-04 02:45 | 47.62764 | -122.38472 | 26345 ft | 468 kts | 157° |
| 2026-05-04 02:45 | 47.59709 | -122.36810 | 26687 ft | 470 kts | 157° |
| 2026-05-04 02:46 | 47.56626 | -122.35135 | 27018 ft | 472 kts | 157° |
| 2026-05-04 02:46 | 47.53539 | -122.33460 | 27356 ft | 475 kts | 157° |
| 2026-05-04 02:46 | 47.50423 | -122.31775 | 27706 ft | 477 kts | 157° |
| 2026-05-04 02:46 | 47.47302 | -122.30088 | 28057 ft | 479 kts | 157° |
| 2026-05-04 02:47 | 47.44165 | -122.28393 | 28379 ft | 481 kts | 157° |
| 2026-05-04 02:47 | 47.41007 | -122.26691 | 28701 ft | 483 kts | 157° |
| 2026-05-04 02:47 | 47.37852 | -122.25002 | 29150 ft | 482 kts | 157° |
| 2026-05-04 02:47 | 47.34775 | -122.23356 | 29601 ft | 481 kts | 157° |
| 2026-05-04 02:48 | 47.31634 | -122.21676 | 30065 ft | 480 kts | 157° |
| 2026-05-04 02:48 | 47.28502 | -122.20000 | 30511 ft | 478 kts | 157° |
| 2026-05-04 02:48 | 47.25385 | -122.18334 | 30921 ft | 476 kts | 156° |
| 2026-05-04 02:48 | 47.22269 | -122.16664 | 31295 ft | 476 kts | 156° |
| 2026-05-04 02:49 | 47.19161 | -122.14999 | 31674 ft | 475 kts | 156° |
| 2026-05-04 02:49 | 47.16055 | -122.13336 | 32054 ft | 475 kts | 156° |
| 2026-05-04 02:49 | 47.12952 | -122.11676 | 32443 ft | 474 kts | 155° |
| 2026-05-04 02:49 | 47.09848 | -122.10021 | 32868 ft | 473 kts | 156° |
| 2026-05-04 02:50 | 47.06758 | -122.08380 | 33279 ft | 472 kts | 155° |
| 2026-05-04 02:50 | 47.03673 | -122.06741 | 33675 ft | 472 kts | 155° |
| 2026-05-04 02:50 | 47.00584 | -122.05101 | 34058 ft | 471 kts | 155° |
| 2026-05-04 02:50 | 46.97500 | -122.03470 | 34374 ft | 471 kts | 155° |
| 2026-05-04 02:51 | 46.94415 | -122.01843 | 34686 ft | 472 kts | 155° |
| 2026-05-04 02:51 | 46.91326 | -122.00219 | 34977 ft | 472 kts | 155° |
| 2026-05-04 02:51 | 46.88227 | -121.98589 | 35279 ft | 473 kts | 155° |
| 2026-05-04 02:51 | 46.85135 | -121.96954 | 35598 ft | 473 kts | 155° |
| 2026-05-04 02:52 | 46.82041 | -121.95318 | 35906 ft | 473 kts | 155° |
| 2026-05-04 02:52 | 46.78950 | -121.93691 | 36182 ft | 473 kts | 155° |
| 2026-05-04 02:52 | 46.75854 | -121.92068 | 36461 ft | 473 kts | 155° |
| 2026-05-04 02:52 | 46.72792 | -121.90465 | 36746 ft | 474 kts | 155° |
| 2026-05-04 02:53 | 46.69689 | -121.88838 | 36916 ft | 475 kts | 155° |
| 2026-05-04 02:53 | 46.66577 | -121.87206 | 36922 ft | 475 kts | 155° |
| 2026-05-04 02:53 | 46.60366 | -121.83949 | 36911 ft | 474 kts | 156° |
| 2026-05-04 02:54 | 46.54159 | -121.80719 | 36914 ft | 473 kts | 156° |
| 2026-05-04 02:54 | 46.47940 | -121.77494 | 36907 ft | 474 kts | 156° |
| 2026-05-04 02:55 | 46.38412 | -121.73517 | 36904 ft | 480 kts | 166° |
| 2026-05-04 02:56 | 46.31841 | -121.71791 | 36891 ft | 480 kts | 165° |
| 2026-05-04 02:56 | 46.25277 | -121.70053 | 36907 ft | 480 kts | 166° |
| 2026-05-04 02:57 | 46.18716 | -121.68317 | 36905 ft | 479 kts | 166° |
| 2026-05-04 02:57 | 46.12160 | -121.66588 | 36893 ft | 478 kts | 166° |
| 2026-05-04 02:58 | 46.05659 | -121.64874 | 36901 ft | 478 kts | 166° |
| 2026-05-04 02:58 | 45.99128 | -121.63157 | 36895 ft | 476 kts | 166° |
| 2026-05-04 02:59 | 45.92613 | -121.61462 | 36876 ft | 475 kts | 166° |
| 2026-05-04 02:59 | 45.86120 | -121.59772 | 36875 ft | 474 kts | 166° |
| 2026-05-04 03:00 | 45.79637 | -121.58076 | 36876 ft | 473 kts | 166° |
| 2026-05-04 03:00 | 45.74259 | -121.56671 | 36871 ft | 472 kts | 166° |
| 2026-05-04 03:01 | 45.67792 | -121.54997 | 36852 ft | 472 kts | 166° |
| 2026-05-04 03:01 | 45.61329 | -121.53328 | 36864 ft | 471 kts | 166° |
| 2026-05-04 03:02 | 45.54929 | -121.51681 | 36863 ft | 470 kts | 166° |
| 2026-05-04 03:02 | 45.48496 | -121.50019 | 36859 ft | 469 kts | 166° |
| 2026-05-04 03:03 | 45.42076 | -121.48362 | 36878 ft | 469 kts | 166° |
| 2026-05-04 03:03 | 45.35653 | -121.46718 | 36880 ft | 469 kts | 166° |
| 2026-05-04 03:04 | 45.29239 | -121.45081 | 36896 ft | 468 kts | 166° |
| 2026-05-04 03:04 | 45.22821 | -121.43443 | 36900 ft | 468 kts | 166° |
| 2026-05-04 03:05 | 45.16413 | -121.41813 | 36911 ft | 467 kts | 167° |
| 2026-05-04 03:05 | 45.10016 | -121.40183 | 36905 ft | 467 kts | 167° |
| 2026-05-04 03:06 | 45.03629 | -121.38563 | 36898 ft | 466 kts | 167° |
| 2026-05-04 03:06 | 44.97257 | -121.36955 | 36906 ft | 465 kts | 167° |
| 2026-05-04 03:07 | 44.90884 | -121.35349 | 36898 ft | 464 kts | 167° |
| 2026-05-04 03:07 | 44.84532 | -121.33755 | 36894 ft | 464 kts | 167° |
| 2026-05-04 03:08 | 44.78183 | -121.32158 | 36897 ft | 463 kts | 167° |
| 2026-05-04 03:08 | 44.71838 | -121.30559 | 36887 ft | 463 kts | 167° |
| 2026-05-04 03:09 | 44.65496 | -121.28972 | 36889 ft | 463 kts | 167° |
| 2026-05-04 03:09 | 44.59192 | -121.27401 | 36897 ft | 463 kts | 167° |
| 2026-05-04 03:10 | 44.52843 | -121.25817 | 36889 ft | 463 kts | 167° |
| 2026-05-04 03:10 | 44.46490 | -121.24237 | 36890 ft | 463 kts | 167° |
| 2026-05-04 03:11 | 44.40141 | -121.22663 | 36888 ft | 464 kts | 167° |
| 2026-05-04 03:11 | 44.33785 | -121.21102 | 36886 ft | 464 kts | 167° |
| 2026-05-04 03:12 | 44.27431 | -121.19541 | 36938 ft | 464 kts | 167° |
| 2026-05-04 03:12 | 44.21081 | -121.17972 | 36937 ft | 464 kts | 167° |
| 2026-05-04 03:13 | 44.14727 | -121.16404 | 36956 ft | 463 kts | 167° |
| 2026-05-04 03:13 | 44.08378 | -121.14844 | 36946 ft | 463 kts | 167° |
| 2026-05-04 03:14 | 44.02028 | -121.13294 | 36945 ft | 463 kts | 167° |
| 2026-05-04 03:14 | 43.95717 | -121.11759 | 36946 ft | 463 kts | 167° |
| 2026-05-04 03:15 | 43.89374 | -121.10214 | 36933 ft | 463 kts | 167° |
| 2026-05-04 03:15 | 43.83037 | -121.08678 | 36929 ft | 462 kts | 167° |
| 2026-05-04 03:16 | 43.76699 | -121.07141 | 36936 ft | 462 kts | 167° |
| 2026-05-04 03:16 | 43.70361 | -121.05604 | 36923 ft | 462 kts | 167° |
| 2026-05-04 03:17 | 43.64052 | -121.04070 | 36916 ft | 462 kts | 167° |
| 2026-05-04 03:17 | 43.57726 | -121.02543 | 36923 ft | 462 kts | 168° |
| 2026-05-04 03:18 | 43.51396 | -121.01025 | 36915 ft | 461 kts | 168° |
| 2026-05-04 03:18 | 43.45070 | -120.99512 | 36904 ft | 461 kts | 168° |
| 2026-05-04 03:19 | 43.38749 | -120.98004 | 36916 ft | 461 kts | 168° |
| 2026-05-04 03:19 | 43.32422 | -120.96491 | 36914 ft | 461 kts | 168° |
| 2026-05-04 03:20 | 43.26112 | -120.94981 | 36910 ft | 461 kts | 169° |
| 2026-05-04 03:20 | 43.19829 | -120.93484 | 36906 ft | 461 kts | 168° |
| 2026-05-04 03:21 | 43.13515 | -120.91973 | 36897 ft | 461 kts | 168° |
| 2026-05-04 03:21 | 43.07197 | -120.90426 | 36898 ft | 461 kts | 168° |
| 2026-05-04 03:22 | 43.00880 | -120.88869 | 36899 ft | 461 kts | 168° |
| 2026-05-04 03:22 | 42.94562 | -120.87332 | 36907 ft | 460 kts | 168° |
| 2026-05-04 03:23 | 42.88260 | -120.85809 | 36911 ft | 460 kts | 168° |
| 2026-05-04 03:23 | 42.81961 | -120.84287 | 36913 ft | 459 kts | 168° |
| 2026-05-04 03:24 | 42.75663 | -120.82765 | 36914 ft | 459 kts | 168° |
| 2026-05-04 03:24 | 42.69373 | -120.81247 | 36914 ft | 459 kts | 168° |
| 2026-05-04 03:25 | 42.63084 | -120.79725 | 36912 ft | 459 kts | 168° |
| 2026-05-04 03:25 | 42.56794 | -120.78217 | 36921 ft | 459 kts | 168° |
| 2026-05-04 03:26 | 42.50507 | -120.76708 | 36918 ft | 459 kts | 168° |
| 2026-05-04 03:26 | 42.44221 | -120.75199 | 36913 ft | 459 kts | 168° |
| 2026-05-04 03:27 | 42.37977 | -120.73704 | 36911 ft | 459 kts | 168° |
| 2026-05-04 03:27 | 42.31690 | -120.72216 | 36909 ft | 459 kts | 168° |
| 2026-05-04 03:28 | 42.25359 | -120.70709 | 36906 ft | 459 kts | 168° |
| 2026-05-04 03:28 | 42.19117 | -120.69216 | 36909 ft | 459 kts | 168° |
| 2026-05-04 03:29 | 42.12824 | -120.67730 | 36951 ft | 459 kts | 168° |
| 2026-05-04 03:29 | 42.06523 | -120.66247 | 36944 ft | 459 kts | 168° |
| 2026-05-04 03:30 | 42.00241 | -120.64766 | 36933 ft | 459 kts | 168° |
| 2026-05-04 03:30 | 41.93954 | -120.63282 | 36916 ft | 459 kts | 168° |
| 2026-05-04 03:31 | 41.87657 | -120.61805 | 36894 ft | 459 kts | 168° |
| 2026-05-04 03:31 | 41.81373 | -120.60326 | 36885 ft | 459 kts | 168° |
| 2026-05-04 03:32 | 41.75094 | -120.58850 | 36878 ft | 458 kts | 168° |
| 2026-05-04 03:32 | 41.68812 | -120.57382 | 36870 ft | 458 kts | 168° |
| 2026-05-04 03:33 | 41.62542 | -120.55918 | 36865 ft | 457 kts | 168° |
| 2026-05-04 03:33 | 41.56314 | -120.54472 | 36860 ft | 457 kts | 168° |
| 2026-05-04 03:34 | 41.50053 | -120.53023 | 36859 ft | 456 kts | 168° |
| 2026-05-04 03:34 | 41.43808 | -120.51569 | 36941 ft | 455 kts | 168° |
| 2026-05-04 03:35 | 41.37571 | -120.50122 | 36936 ft | 455 kts | 168° |
| 2026-05-04 03:35 | 41.31336 | -120.48690 | 36914 ft | 454 kts | 169° |
| 2026-05-04 03:36 | 41.25113 | -120.47263 | 36898 ft | 454 kts | 169° |
| 2026-05-04 03:36 | 41.18893 | -120.45834 | 36874 ft | 453 kts | 169° |
| 2026-05-04 03:37 | 41.12677 | -120.44406 | 36875 ft | 453 kts | 168° |
| 2026-05-04 03:37 | 41.06479 | -120.42982 | 36876 ft | 452 kts | 169° |
| 2026-05-04 03:38 | 41.00329 | -120.41580 | 36882 ft | 451 kts | 168° |
| 2026-05-04 03:38 | 40.94197 | -120.39867 | 36886 ft | 449 kts | 164° |
| 2026-05-04 03:39 | 40.88137 | -120.37867 | 36892 ft | 448 kts | 164° |
| 2026-05-04 03:39 | 40.82083 | -120.35884 | 36891 ft | 448 kts | 165° |
| 2026-05-04 03:40 | 40.76018 | -120.33992 | 36907 ft | 447 kts | 164° |
| 2026-05-04 03:40 | 40.69955 | -120.32141 | 36903 ft | 446 kts | 165° |
| 2026-05-04 03:41 | 40.63913 | -120.30299 | 36921 ft | 446 kts | 165° |
| 2026-05-04 03:41 | 40.57878 | -120.28439 | 36927 ft | 445 kts | 164° |
| 2026-05-04 03:42 | 40.51854 | -120.26584 | 36934 ft | 445 kts | 165° |
| 2026-05-04 03:42 | 40.45830 | -120.24737 | 36938 ft | 444 kts | 164° |
| 2026-05-04 03:43 | 40.39810 | -120.22884 | 36952 ft | 444 kts | 164° |
| 2026-05-04 03:43 | 40.33805 | -120.21047 | 36951 ft | 443 kts | 165° |
| 2026-05-04 03:44 | 40.27805 | -120.19220 | 36942 ft | 442 kts | 165° |
| 2026-05-04 03:44 | 40.21803 | -120.17399 | 36923 ft | 443 kts | 165° |
| 2026-05-04 03:45 | 40.15798 | -120.15579 | 36911 ft | 443 kts | 166° |
| 2026-05-04 03:45 | 40.09822 | -120.13767 | 36906 ft | 444 kts | 165° |
| 2026-05-04 03:46 | 40.03807 | -120.11937 | 36905 ft | 445 kts | 165° |
| 2026-05-04 03:46 | 39.97766 | -120.10106 | 36909 ft | 446 kts | 165° |
| 2026-05-04 03:47 | 39.91716 | -120.08291 | 36922 ft | 447 kts | 165° |
| 2026-05-04 03:47 | 39.85654 | -120.06463 | 36937 ft | 447 kts | 166° |
| 2026-05-04 03:48 | 39.79594 | -120.04640 | 36934 ft | 447 kts | 166° |
| 2026-05-04 03:48 | 39.73541 | -120.02825 | 36935 ft | 447 kts | 166° |
| 2026-05-04 03:49 | 39.67483 | -120.01009 | 36945 ft | 447 kts | 167° |
| 2026-05-04 03:49 | 39.61425 | -119.99196 | 37012 ft | 446 kts | 167° |
| 2026-05-04 03:50 | 39.55369 | -119.97392 | 36998 ft | 447 kts | 167° |
| 2026-05-04 03:50 | 39.49357 | -119.95597 | 36983 ft | 446 kts | 168° |
| 2026-05-04 03:51 | 39.43301 | -119.93806 | 36985 ft | 446 kts | 167° |
| 2026-05-04 03:51 | 39.37259 | -119.92018 | 36978 ft | 446 kts | 167° |
| 2026-05-04 03:52 | 39.31212 | -119.90221 | 36984 ft | 446 kts | 168° |
| 2026-05-04 03:52 | 39.25161 | -119.88428 | 36991 ft | 446 kts | 168° |
| 2026-05-04 03:53 | 39.20124 | -119.86937 | 36995 ft | 447 kts | 168° |
| 2026-05-04 03:53 | 39.13048 | -119.84851 | 37008 ft | 446 kts | 168° |
| 2026-05-04 03:54 | 39.08016 | -119.83376 | 37008 ft | 446 kts | 168° |
| 2026-05-04 03:54 | 39.01976 | -119.81603 | 37005 ft | 445 kts | 168° |
| 2026-05-04 03:55 | 38.95942 | -119.79834 | 37006 ft | 445 kts | 169° |
| 2026-05-04 03:55 | 38.89915 | -119.78064 | 37010 ft | 444 kts | 169° |
| 2026-05-04 03:56 | 38.83886 | -119.76294 | 37004 ft | 444 kts | 169° |
| 2026-05-04 03:56 | 38.77870 | -119.74540 | 36995 ft | 444 kts | 169° |
| 2026-05-04 03:57 | 38.71848 | -119.72796 | 37009 ft | 443 kts | 169° |
| 2026-05-04 03:57 | 38.65832 | -119.71055 | 36975 ft | 443 kts | 169° |
| 2026-05-04 03:58 | 38.56853 | -119.68443 | 36986 ft | 443 kts | 170° |
| 2026-05-04 03:58 | 38.50843 | -119.66713 | 36997 ft | 442 kts | 170° |
| 2026-05-04 03:59 | 38.44847 | -119.64983 | 36998 ft | 442 kts | 170° |
| 2026-05-04 03:59 | 38.38856 | -119.63250 | 37006 ft | 441 kts | 171° |
| 2026-05-04 04:00 | 38.32878 | -119.61522 | 37010 ft | 440 kts | 171° |
| 2026-05-04 04:00 | 38.26909 | -119.59808 | 37010 ft | 440 kts | 171° |
| 2026-05-04 04:01 | 38.20944 | -119.58111 | 37003 ft | 439 kts | 172° |
| 2026-05-04 04:01 | 38.14981 | -119.56423 | 37006 ft | 438 kts | 172° |
| 2026-05-04 04:02 | 38.09026 | -119.54739 | 37006 ft | 438 kts | 172° |
| 2026-05-04 04:02 | 38.03117 | -119.53072 | 36991 ft | 437 kts | 173° |
| 2026-05-04 04:03 | 37.97186 | -119.51399 | 36995 ft | 437 kts | 173° |
| 2026-05-04 04:03 | 37.91248 | -119.49719 | 36999 ft | 437 kts | 173° |
| 2026-05-04 04:04 | 37.85324 | -119.48045 | 36967 ft | 436 kts | 174° |
| 2026-05-04 04:04 | 37.79405 | -119.46380 | 36980 ft | 435 kts | 174° |
| 2026-05-04 04:05 | 37.73488 | -119.44731 | 36980 ft | 435 kts | 174° |
| 2026-05-04 04:05 | 37.67581 | -119.43079 | 36953 ft | 435 kts | 174° |
| 2026-05-04 04:06 | 37.61671 | -119.41416 | 36966 ft | 435 kts | 175° |
| 2026-05-04 04:06 | 37.55774 | -119.39761 | 36965 ft | 434 kts | 175° |
| 2026-05-04 04:07 | 37.49882 | -119.38123 | 36966 ft | 433 kts | 175° |
| 2026-05-04 04:07 | 37.43997 | -119.36485 | 36928 ft | 433 kts | 177° |
| 2026-05-04 04:08 | 37.38113 | -119.34853 | 36942 ft | 433 kts | 177° |
| 2026-05-04 04:08 | 37.32229 | -119.33224 | 36930 ft | 433 kts | 177° |
| 2026-05-04 04:09 | 37.26374 | -119.31605 | 36931 ft | 434 kts | 178° |
| 2026-05-04 04:09 | 37.20485 | -119.29976 | 36939 ft | 433 kts | 178° |
| 2026-05-04 04:10 | 37.14601 | -119.28348 | 36939 ft | 433 kts | 178° |
| 2026-05-04 04:10 | 37.08728 | -119.26726 | 36921 ft | 432 kts | 178° |
| 2026-05-04 04:11 | 37.02859 | -119.25107 | 36915 ft | 431 kts | 179° |
| 2026-05-04 04:11 | 36.97007 | -119.23507 | 36927 ft | 431 kts | 179° |
| 2026-05-04 04:12 | 36.91157 | -119.21901 | 36943 ft | 430 kts | 179° |
| 2026-05-04 04:12 | 36.85312 | -119.20300 | 36936 ft | 429 kts | 179° |
| 2026-05-04 04:13 | 36.79475 | -119.18705 | 36938 ft | 429 kts | 179° |
| 2026-05-04 04:13 | 36.73650 | -119.17114 | 36934 ft | 429 kts | 179° |
| 2026-05-04 04:14 | 36.67855 | -119.15540 | 36895 ft | 429 kts | 179° |
| 2026-05-04 04:14 | 36.62022 | -119.13949 | 36898 ft | 429 kts | 179° |
| 2026-05-04 04:15 | 36.56185 | -119.12359 | 36921 ft | 429 kts | 179° |
| 2026-05-04 04:15 | 36.50341 | -119.10773 | 36938 ft | 430 kts | 179° |
| 2026-05-04 04:16 | 36.44496 | -119.09187 | 36909 ft | 431 kts | 179° |
| 2026-05-04 04:16 | 36.38630 | -119.07598 | 36921 ft | 432 kts | 179° |
| 2026-05-04 04:17 | 36.32749 | -119.06011 | 36923 ft | 433 kts | 179° |
| 2026-05-04 04:17 | 36.26864 | -119.04431 | 36897 ft | 433 kts | 179° |
| 2026-05-04 04:18 | 36.20964 | -119.02846 | 36915 ft | 434 kts | 179° |
| 2026-05-04 04:18 | 36.15057 | -119.01255 | 36933 ft | 435 kts | 179° |
| 2026-05-04 04:19 | 36.09183 | -118.99699 | 36948 ft | 434 kts | 179° |
| 2026-05-04 04:19 | 36.03267 | -118.98187 | 36922 ft | 434 kts | 180° |
| 2026-05-04 04:20 | 35.97347 | -118.96685 | 36937 ft | 435 kts | 179° |
| 2026-05-04 04:20 | 35.91424 | -118.95176 | 36942 ft | 435 kts | 179° |
| 2026-05-04 04:21 | 35.85497 | -118.93662 | 36924 ft | 435 kts | 180° |
| 2026-05-04 04:21 | 35.79573 | -118.92155 | 36938 ft | 434 kts | 180° |
| 2026-05-04 04:22 | 35.73650 | -118.90876 | 36959 ft | 430 kts | 182° |
| 2026-05-04 04:22 | 35.67738 | -118.89786 | 36959 ft | 429 kts | 183° |
| 2026-05-04 04:23 | 35.61837 | -118.88695 | 36964 ft | 429 kts | 184° |
| 2026-05-04 04:23 | 35.55945 | -118.87546 | 36978 ft | 429 kts | 183° |
| 2026-05-04 04:24 | 35.50065 | -118.86359 | 36982 ft | 428 kts | 183° |
| 2026-05-04 04:24 | 35.44191 | -118.85174 | 36962 ft | 427 kts | 185° |
| 2026-05-04 04:25 | 35.41255 | -118.84374 | 36976 ft | 442 kts | 176° |
| 2026-05-04 04:25 | 35.38375 | -118.82815 | 36983 ft | 466 kts | 163° |
| 2026-05-04 04:25 | 35.32904 | -118.78372 | 36975 ft | 473 kts | 160° |
| 2026-05-04 04:26 | 35.27454 | -118.73867 | 36970 ft | 472 kts | 160° |
| 2026-05-04 04:26 | 35.22010 | -118.69394 | 36943 ft | 471 kts | 163° |
| 2026-05-04 04:27 | 35.16557 | -118.64948 | 36920 ft | 470 kts | 163° |
| 2026-05-04 04:27 | 35.11120 | -118.60504 | 37004 ft | 471 kts | 162° |
| 2026-05-04 04:28 | 35.05674 | -118.56055 | 37008 ft | 470 kts | 164° |
| 2026-05-04 04:28 | 35.02958 | -118.53841 | 36797 ft | 470 kts | 164° |
| 2026-05-04 04:28 | 35.00270 | -118.51654 | 36538 ft | 472 kts | 164° |
| 2026-05-04 04:29 | 34.97533 | -118.49431 | 36286 ft | 473 kts | 164° |
| 2026-05-04 04:29 | 34.94794 | -118.47205 | 36040 ft | 474 kts | 164° |
| 2026-05-04 04:29 | 34.92051 | -118.44975 | 35790 ft | 474 kts | 164° |
| 2026-05-04 04:29 | 34.89267 | -118.42714 | 35508 ft | 475 kts | 164° |
| 2026-05-04 04:30 | 34.86511 | -118.40476 | 35281 ft | 476 kts | 164° |
| 2026-05-04 04:30 | 34.83751 | -118.38243 | 35053 ft | 477 kts | 164° |
| 2026-05-04 04:30 | 34.80983 | -118.36005 | 34434 ft | 482 kts | 163° |
| 2026-05-04 04:30 | 34.78251 | -118.33414 | 33357 ft | 513 kts | 152° |
| 2026-05-04 04:31 | 34.75766 | -118.30134 | 32343 ft | 540 kts | 139° |
| 2026-05-04 04:31 | 34.73503 | -118.26513 | 31676 ft | 534 kts | 138° |
| 2026-05-04 04:31 | 34.71284 | -118.22993 | 30630 ft | 529 kts | 137° |
| 2026-05-04 04:31 | 34.69040 | -118.19488 | 29408 ft | 522 kts | 137° |
| 2026-05-04 04:32 | 34.66794 | -118.16032 | 27912 ft | 519 kts | 137° |
| 2026-05-04 04:32 | 34.64553 | -118.12616 | 26280 ft | 518 kts | 136° |
| 2026-05-04 04:32 | 34.62307 | -118.09198 | 24934 ft | 514 kts | 136° |
| 2026-05-04 04:32 | 34.60078 | -118.05796 | 23815 ft | 514 kts | 135° |
| 2026-05-04 04:33 | 34.57967 | -118.02309 | 23021 ft | 512 kts | 129° |
| 2026-05-04 04:33 | 34.56281 | -117.98485 | 22194 ft | 512 kts | 121° |
| 2026-05-04 04:33 | 34.54748 | -117.94645 | 21797 ft | 497 kts | 121° |
| 2026-05-04 04:33 | 34.53250 | -117.90923 | 21538 ft | 486 kts | 122° |
| 2026-05-04 04:34 | 34.51756 | -117.87270 | 21090 ft | 480 kts | 122° |
| 2026-05-04 04:34 | 34.50267 | -117.83673 | 20769 ft | 476 kts | 122° |
| 2026-05-04 04:34 | 34.48781 | -117.80100 | 20330 ft | 473 kts | 122° |
| 2026-05-04 04:34 | 34.47307 | -117.76551 | 19904 ft | 469 kts | 122° |
| 2026-05-04 04:35 | 34.45852 | -117.73026 | 19469 ft | 466 kts | 122° |
| 2026-05-04 04:35 | 34.44412 | -117.69528 | 19032 ft | 462 kts | 122° |
| 2026-05-04 04:35 | 34.42984 | -117.66052 | 18764 ft | 460 kts | 122° |
| 2026-05-04 04:35 | 34.41569 | -117.62584 | 18473 ft | 458 kts | 122° |
| 2026-05-04 04:36 | 34.40157 | -117.59116 | 18189 ft | 459 kts | 122° |
| 2026-05-04 04:36 | 34.38752 | -117.55662 | 17884 ft | 457 kts | 122° |
| 2026-05-04 04:36 | 34.37351 | -117.52217 | 17602 ft | 454 kts | 122° |
| 2026-05-04 04:36 | 34.35975 | -117.48843 | 17317 ft | 451 kts | 122° |
| 2026-05-04 04:37 | 34.31833 | -117.38786 | 16499 ft | 440 kts | 121° |
| 2026-05-04 04:37 | 34.30471 | -117.35486 | 16239 ft | 437 kts | 121° |
| 2026-05-04 04:38 | 34.29098 | -117.32221 | 16117 ft | 434 kts | 122° |
| 2026-05-04 04:38 | 34.27663 | -117.29012 | 16158 ft | 433 kts | 124° |
| 2026-05-04 04:38 | 34.26184 | -117.25843 | 16157 ft | 433 kts | 125° |
| 2026-05-04 04:38 | 34.24681 | -117.22685 | 16158 ft | 433 kts | 125° |
| 2026-05-04 04:39 | 34.23178 | -117.19530 | 16174 ft | 434 kts | 125° |
| 2026-05-04 04:39 | 34.21682 | -117.16364 | 16060 ft | 434 kts | 124° |
| 2026-05-04 04:39 | 34.20210 | -117.13212 | 16084 ft | 424 kts | 124° |
| 2026-05-04 04:39 | 34.18804 | -117.10163 | 16061 ft | 407 kts | 124° |
| 2026-05-04 04:40 | 34.17456 | -117.07236 | 16080 ft | 390 kts | 124° |
| 2026-05-04 04:40 | 34.16143 | -117.04409 | 15923 ft | 382 kts | 125° |
| 2026-05-04 04:40 | 34.14830 | -117.01640 | 15770 ft | 379 kts | 126° |
| 2026-05-04 04:40 | 34.13513 | -116.98901 | 15566 ft | 376 kts | 125° |
| 2026-05-04 04:41 | 34.12195 | -116.96184 | 15398 ft | 375 kts | 126° |
| 2026-05-04 04:41 | 34.10882 | -116.93470 | 15250 ft | 373 kts | 126° |
| 2026-05-04 04:41 | 34.09577 | -116.90761 | 15088 ft | 373 kts | 125° |
| 2026-05-04 04:41 | 34.08305 | -116.88085 | 14896 ft | 371 kts | 124° |
| 2026-05-04 04:42 | 34.07043 | -116.85385 | 14621 ft | 368 kts | 123° |
| 2026-05-04 04:42 | 34.05794 | -116.82700 | 14430 ft | 365 kts | 123° |
| 2026-05-04 04:42 | 34.04554 | -116.80036 | 14242 ft | 363 kts | 123° |
| 2026-05-04 04:42 | 34.03384 | -116.77351 | 14031 ft | 362 kts | 117° |
| 2026-05-04 04:43 | 34.02545 | -116.74469 | 13626 ft | 365 kts | 111° |
| 2026-05-04 04:43 | 34.01775 | -116.71571 | 13222 ft | 360 kts | 111° |
| 2026-05-04 04:43 | 34.01030 | -116.68741 | 13083 ft | 348 kts | 111° |
| 2026-05-04 04:43 | 34.00314 | -116.66022 | 12905 ft | 334 kts | 112° |
| 2026-05-04 04:44 | 33.99613 | -116.63385 | 12569 ft | 327 kts | 112° |
| 2026-05-04 04:44 | 33.98915 | -116.60784 | 12082 ft | 324 kts | 111° |
| 2026-05-04 04:44 | 33.98223 | -116.58222 | 11589 ft | 320 kts | 111° |
| 2026-05-04 04:44 | 33.97422 | -116.55740 | 11149 ft | 315 kts | 121° |
| 2026-05-04 04:45 | 33.96231 | -116.53590 | 10808 ft | 307 kts | 134° |
| 2026-05-04 04:45 | 33.94719 | -116.51779 | 10374 ft | 306 kts | 141° |
| 2026-05-04 04:45 | 33.93174 | -116.50035 | 10018 ft | 300 kts | 140° |
| 2026-05-04 04:47 | 33.86071 | -116.40524 | 8333 ft | 253 kts | 117° |
| 2026-05-04 04:47 | 33.85351 | -116.38618 | 8163 ft | 249 kts | 118° |
| 2026-05-04 04:47 | 33.84630 | -116.36725 | 8038 ft | 249 kts | 117° |
| 2026-05-04 04:47 | 33.83913 | -116.34835 | 7910 ft | 248 kts | 117° |
| 2026-05-04 04:48 | 33.83197 | -116.32951 | 7669 ft | 247 kts | 117° |
| 2026-05-04 04:49 | 33.80350 | -116.25674 | 6841 ft | 230 kts | 131° |
| 2026-05-04 04:49 | 33.79256 | -116.24350 | 6533 ft | 220 kts | 149° |
| 2026-05-04 04:49 | 33.77921 | -116.23547 | 6244 ft | 211 kts | 168° |
| 2026-05-04 04:49 | 33.76509 | -116.23266 | 5970 ft | 202 kts | 182° |
| 2026-05-04 04:50 | 33.75151 | -116.23476 | 5717 ft | 193 kts | 199° |
| 2026-05-04 04:50 | 33.73947 | -116.24114 | 5481 ft | 187 kts | 217° |
| 2026-05-04 04:50 | 33.72976 | -116.25087 | 5242 ft | 184 kts | 230° |
| 2026-05-04 04:50 | 33.72250 | -116.26332 | 5021 ft | 180 kts | 242° |
| 2026-05-04 04:51 | 33.71713 | -116.27689 | 4796 ft | 177 kts | 249° |
| 2026-05-04 04:51 | 33.71342 | -116.29084 | 4587 ft | 176 kts | 258° |
| 2026-05-04 04:51 | 33.71129 | -116.30541 | 4376 ft | 182 kts | 269° |
| 2026-05-04 04:51 | 33.71081 | -116.32055 | 4141 ft | 181 kts | 278° |
| 2026-05-04 04:52 | 33.71203 | -116.33540 | 3890 ft | 178 kts | 285° |
| 2026-05-04 04:52 | 33.71484 | -116.34979 | 3641 ft | 176 kts | 290° |
| 2026-05-04 04:52 | 33.71916 | -116.36343 | 3409 ft | 173 kts | 295° |
| 2026-05-04 04:52 | 33.72414 | -116.37683 | 3170 ft | 178 kts | 293° |
| 2026-05-04 04:53 | 33.72919 | -116.39046 | 2960 ft | 177 kts | 290° |
| 2026-05-04 04:53 | 33.73410 | -116.40373 | 2737 ft | 171 kts | 291° |
| 2026-05-04 04:53 | 33.73883 | -116.41654 | 2511 ft | 164 kts | 290° |
| 2026-05-04 04:53 | 33.74527 | -116.42758 | 2305 ft | 163 kts | 314° |
| 2026-05-04 04:54 | 33.75416 | -116.43607 | 2133 ft | 160 kts | 318° |
| 2026-05-04 04:54 | 33.76237 | -116.44383 | 1913 ft | 141 kts | 317° |
| 2026-05-04 04:54 | 33.76964 | -116.45075 | 1766 ft | 128 kts | 319° |
| 2026-05-04 04:54 | 33.77655 | -116.45736 | 1611 ft | 125 kts | 320° |
| 2026-05-04 04:55 | 33.78331 | -116.46387 | 1449 ft | 124 kts | 320° |
| 2026-05-04 04:55 | 33.78963 | -116.47087 | 1236 ft | 123 kts | 319° |
| 2026-05-04 04:55 | 33.79598 | -116.47739 | 1055 ft | 118 kts | 321° |
| 2026-05-04 04:55 | 33.80266 | -116.48345 | 933 ft | 123 kts | 322° |
| 2026-05-04 04:56 | 33.80942 | -116.48959 | 747 ft | 125 kts | 322° |
| 2026-05-04 04:56 | 33.81625 | -116.49578 | 549 ft | 122 kts | 324° |
| 2026-05-04 04:56 | 33.82296 | -116.50166 | 415 ft | 119 kts | 323° |
| 2026-05-04 04:56 | 33.82850 | -116.50662 | 430 ft | 78 kts | 323° |
| 2026-05-04 04:57 | 33.83150 | -116.50929 | 443 ft | 30 kts | 323° |
| 2026-05-04 04:57 | 33.83299 | -116.51060 | 450 ft | 23 kts | 323° |
| 2026-05-04 04:57 | 33.83334 | -116.51143 | 452 ft | 9 kts | 238° |
| 2026-05-04 04:57 | 33.83280 | -116.51206 | 451 ft | 12 kts | 212° |
| 2026-05-04 04:58 | 33.83193 | -116.51184 | 449 ft | 15 kts | 143° |
| 2026-05-04 04:58 | 33.83098 | -116.51098 | 433 ft | 19 kts | 144° |
| 2026-05-04 04:58 | 33.82983 | -116.50998 | 430 ft | 23 kts | 143° |
| 2026-05-04 04:58 | 33.82852 | -116.50879 | 439 ft | 25 kts | 141° |
| 2026-05-04 04:59 | 33.82716 | -116.50749 | 422 ft | 23 kts | 142° |
| 2026-05-04 04:59 | 33.82578 | -116.50626 | 428 ft | 27 kts | 143° |
| 2026-05-04 04:59 | 33.82428 | -116.50492 | 417 ft | 21 kts | 143° |
| 2026-05-04 04:59 | 33.82352 | -116.50423 | 408 ft | 12 kts | 143° |
| 2026-05-04 05:00 | 33.82297 | -116.50433 | 421 ft | 4 kts | 227° |
| 2026-05-04 05:00 | 33.82289 | -116.50447 | 415 ft | 1 kts | 237° |
| 2026-05-04 05:00 | 33.82277 | -116.50469 | 418 ft | 0 kts | 237° |
| 2026-05-04 05:01 | 33.82255 | -116.50508 | 424 ft | 6 kts | 233° |
| 2026-05-04 05:01 | 33.82225 | -116.50559 | 425 ft | 10 kts | 241° |
| 2026-05-04 05:01 | 33.82239 | -116.50608 | 420 ft | 5 kts | 325° |
| 2026-05-04 05:01 | 33.82257 | -116.50624 | 427 ft | 0 kts | 322° |